メインページ
METAR-TAF:

METAR-TAF

空港 :

ラバト, モロッコ

ラバト=サレ空港

緯度: 34-03N, 経度: 006-46W, 海抜: 84m

現時点の気象観測

当レポートは25分前の20:30(UTC)に作成
の風 4kt、南東から南/南西の間で変化する
気温 10°C
湿度 93%
気圧 1011 hPa
視程: 5000m
高度1000ftの雲は散在している
高度2000ftの雲は散在している
高度10000ftの曇り

METAR: GMME 112030Z 18004KT 140V210 5000 SCT010 SCT020 OVC100 10/09 Q1011 RERA TEMPO 3000 SHRA

時間: 20:55 (20:55 UTC)

予報

当レポートは9時間55分前の11:00(UTC)に作成
予報は11日の 12時(UTC)から 12日の 18時(UTC)まで有効
南西の風 18kt、最大27ktの突風を伴う
視程: 5000m
高度1000ftの雲は散在している
高度1600ftの千切れ雲あり
高度10000ftの千切れ雲あり
12日の 12時(UTC)から 12日の 20時(UTC)まで一時的に
視程: 4000m
高度1000ftの雲は散在している
高度1600ftの千切れ雲あり
高度2200ftの雲は散在している, 積乱雲.
高度10000ftの曇り
にわか雨
11日の 23時(UTC)から 12日の 10時(UTC)まで一時的に
高度1000ftの雲は散在している
高度1300ftの千切れ雲あり
高度2200ftの雲は散在している, 積乱雲.
12日の 10時(UTC)から 12日の 12時(UTC)まで徐々に
北/北東の風 8kt

TAF: GMME 111100Z 1112/1218 22018G27KT 5000 RA SCT010 BKN016 BKN100 TEMPO 1212/1220 4000 SHRA SCT010 BKN016 SCT022CB OVC100 TEMPO 1123/1210 TSSHRA SCT010 BKN013 SCT022CB BECMG 1210/1212 02008KT

4,000以上の空港の気象観測と天気予報(METAR報とTAF報)

利用可能な観測所は地図上に黄色い丸と赤い丸で示す。

丸の上にカーソルを重ねると観測所名を参照できる。

次にクリックすると気象観測と天気予報を参照できる。

マップの切り替え:黒色「×」印の緑ボタンをクリックして拡大、「-」印の緑ボタンをクリックして縮小、緑色の三角印をクリックして隣りの地図に切り替え


METAR-TAF: